createdAt,value
2018-10-18T00:00:08.414Z,13.96
2018-10-18T00:01:08.175Z,14
2018-10-18T00:02:08.625Z,13.9
2018-10-18T00:03:08.533Z,13.96
2018-10-18T00:04:08.440Z,13.99
2018-10-18T00:05:08.185Z,14.03
2018-10-18T00:06:08.847Z,13.89
2018-10-18T00:07:08.194Z,13.79
2018-10-18T00:08:08.727Z,13.86
2018-10-18T00:09:07.956Z,13.81
2018-10-18T00:10:08.462Z,13.92
2018-10-18T00:11:08.469Z,14
2018-10-18T00:12:08.294Z,13.89
2018-10-18T00:13:08.227Z,13.9
2018-10-18T00:14:08.413Z,13.87
2018-10-18T00:15:08.243Z,13.92
2018-10-18T00:16:08.241Z,13.79
2018-10-18T00:17:08.250Z,13.85
2018-10-18T00:18:08.451Z,13.83
2018-10-18T00:19:08.512Z,13.71
2018-10-18T00:20:08.507Z,13.71
2018-10-18T00:21:08.310Z,13.7
2018-10-18T00:22:08.530Z,13.65
2018-10-18T00:23:08.528Z,13.75
2018-10-18T00:24:08.779Z,13.72
2018-10-18T00:25:08.541Z,13.77
2018-10-18T00:26:08.114Z,13.83
2018-10-18T00:27:08.288Z,13.79
2018-10-18T00:28:08.308Z,13.77
2018-10-18T00:29:08.609Z,13.81
2018-10-18T00:30:08.843Z,13.74
2018-10-18T00:31:08.571Z,13.72
2018-10-18T00:32:08.899Z,13.72
2018-10-18T00:33:08.325Z,13.65
2018-10-18T00:34:08.579Z,13.67
2018-10-18T00:35:08.590Z,13.67
2018-10-18T00:36:08.927Z,13.68
2018-10-18T00:37:08.595Z,13.74
2018-10-18T00:38:08.854Z,13.62
2018-10-18T00:39:08.355Z,13.59
2018-10-18T00:40:08.353Z,13.57
2018-10-18T00:41:08.625Z,13.6
2018-10-18T00:42:08.548Z,13.56
2018-10-18T00:43:08.395Z,13.6
2018-10-18T00:44:08.527Z,13.6
2018-10-18T00:45:08.676Z,13.57
2018-10-18T00:46:08.628Z,13.53
2018-10-18T00:47:08.421Z,13.5
2018-10-18T00:48:09.012Z,13.44
2018-10-18T00:49:08.644Z,13.53
2018-10-18T00:50:08.528Z,13.49
2018-10-18T00:51:08.653Z,13.31
2018-10-18T00:52:08.405Z,13.41
2018-10-18T00:53:08.660Z,13.35
2018-10-18T00:54:09.024Z,13.28
2018-10-18T00:55:08.420Z,13.27
2018-10-18T00:56:08.925Z,13.35
2018-10-18T00:57:08.693Z,13.33
2018-10-18T00:58:08.698Z,13.23
2018-10-18T00:59:08.728Z,13.25
2018-10-18T01:00:08.982Z,13.3
2018-10-18T01:01:08.454Z,13.25
2018-10-18T01:02:08.998Z,13.16
2018-10-18T01:03:08.717Z,13.27
2018-10-18T01:04:08.756Z,13.16
2018-10-18T01:05:08.726Z,13.19
2018-10-18T01:06:09.082Z,13.16
2018-10-18T01:07:08.748Z,13.13
2018-10-18T01:08:09.020Z,13.19
2018-10-18T01:09:08.743Z,13.18
2018-10-18T01:10:08.501Z,13.13
2018-10-18T01:11:08.502Z,13.04
2018-10-18T01:12:09.185Z,13.08
2018-10-18T01:13:08.765Z,13.08
2018-10-18T01:14:09.212Z,13.05
2018-10-18T01:15:08.778Z,13.09
2018-10-18T01:16:08.775Z,13.01
2018-10-18T01:17:08.860Z,13.08
2018-10-18T01:18:09.120Z,13.11
2018-10-18T01:19:08.526Z,13.09
2018-10-18T01:20:09.171Z,13.13
2018-10-18T01:21:08.532Z,13.04
2018-10-18T01:22:08.810Z,13.03
2018-10-18T01:23:08.551Z,13.05
2018-10-18T01:24:09.117Z,13.12
2018-10-18T01:25:08.824Z,13.09
2018-10-18T01:26:09.185Z,13.01
2018-10-18T01:27:08.839Z,12.98
2018-10-18T01:28:08.878Z,13
2018-10-18T01:29:08.824Z,12.97
2018-10-18T01:30:09.084Z,12.91
2018-10-18T01:31:08.597Z,13.03
2018-10-18T01:32:09.014Z,12.97
2018-10-18T01:33:08.891Z,12.98
2018-10-18T01:34:08.588Z,12.9
2018-10-18T01:35:08.342Z,12.93
2018-10-18T01:36:09.155Z,12.95
2018-10-18T01:37:08.856Z,12.82
2018-10-18T01:38:08.731Z,12.82
2018-10-18T01:39:08.866Z,12.82
2018-10-18T01:40:08.869Z,12.82
2018-10-18T01:41:08.880Z,12.86
2018-10-18T01:42:08.833Z,12.79
2018-10-18T01:43:08.882Z,12.76
2018-10-18T01:44:08.464Z,12.85
2018-10-18T01:45:08.394Z,12.79
2018-10-18T01:46:08.900Z,12.82
2018-10-18T01:47:08.901Z,12.76
2018-10-18T01:48:09.261Z,12.76
2018-10-18T01:49:08.918Z,12.78
2018-10-18T01:50:08.791Z,12.73
2018-10-18T01:51:08.922Z,12.64
2018-10-18T01:52:08.433Z,12.75
2018-10-18T01:53:08.687Z,12.78
2018-10-18T01:54:09.316Z,12.76
2018-10-18T01:55:08.690Z,12.73
2018-10-18T01:56:09.220Z,12.75
2018-10-18T01:57:08.691Z,12.76
2018-10-18T01:58:08.449Z,12.73
2018-10-18T01:59:08.950Z,12.78
2018-10-18T02:00:08.466Z,12.75
2018-10-18T02:01:08.969Z,12.76
2018-10-18T02:02:08.976Z,12.73
2018-10-18T02:03:08.762Z,12.76
2018-10-18T02:04:08.735Z,12.64
2018-10-18T02:05:08.733Z,12.64
2018-10-18T02:06:09.270Z,12.76
2018-10-18T02:07:09.006Z,12.79
2018-10-18T02:08:09.164Z,12.76
2018-10-18T02:09:09.000Z,12.73
2018-10-18T02:10:09.008Z,12.76
2018-10-18T02:11:09.007Z,12.61
2018-10-18T02:12:08.961Z,12.67
2018-10-18T02:13:08.769Z,12.67
2018-10-18T02:14:08.784Z,12.62
2018-10-18T02:15:09.032Z,12.8
2018-10-18T02:16:09.036Z,12.78
2018-10-18T02:17:08.529Z,12.8
2018-10-18T02:18:09.432Z,12.76
2018-10-18T02:19:09.003Z,12.76
2018-10-18T02:20:08.804Z,12.61
2018-10-18T02:21:08.801Z,12.64
2018-10-18T02:22:08.817Z,12.64
2018-10-18T02:23:08.810Z,12.75
2018-10-18T02:24:09.402Z,12.76
2018-10-18T02:25:09.405Z,12.75
2018-10-18T02:26:08.823Z,12.78
2018-10-18T02:27:09.078Z,12.78
2018-10-18T02:28:08.831Z,12.67
2018-10-18T02:29:08.848Z,12.78
2018-10-18T02:30:09.105Z,12.76
2018-10-18T02:31:09.105Z,12.61
2018-10-18T02:32:09.099Z,12.73
2018-10-18T02:33:08.850Z,12.67
2018-10-18T02:34:09.107Z,12.65
2018-10-18T02:35:08.893Z,12.61
2018-10-18T02:36:09.480Z,12.64
2018-10-18T02:37:09.123Z,12.64
2018-10-18T02:38:09.139Z,12.58
2018-10-18T02:39:09.118Z,12.6
2018-10-18T02:40:08.863Z,12.62
2018-10-18T02:41:09.115Z,12.58
2018-10-18T02:42:09.510Z,12.47
2018-10-18T02:43:08.886Z,12.55
2018-10-18T02:44:08.882Z,12.58
2018-10-18T02:45:08.885Z,12.58
2018-10-18T02:46:08.894Z,12.53
2018-10-18T02:47:09.163Z,12.58
2018-10-18T02:48:09.400Z,12.5
2018-10-18T02:49:09.159Z,12.45
2018-10-18T02:50:09.161Z,12.43
2018-10-18T02:51:09.217Z,12.53
2018-10-18T02:52:09.168Z,12.47
2018-10-18T02:53:08.931Z,12.42
2018-10-18T02:54:09.435Z,12.37
2018-10-18T02:55:08.932Z,12.32
2018-10-18T02:56:09.191Z,12.32
2018-10-18T02:57:09.196Z,12.28
2018-10-18T02:58:09.199Z,12.29
2018-10-18T02:59:08.946Z,12.25
2018-10-18T03:00:08.735Z,12.27
2018-10-18T03:01:09.209Z,12.18
2018-10-18T03:02:09.222Z,12.22
2018-10-18T03:03:09.218Z,12.29
2018-10-18T03:04:09.219Z,12.17
2018-10-18T03:05:09.223Z,12.21
2018-10-18T03:06:09.599Z,12.25
2018-10-18T03:07:09.230Z,12.28
2018-10-18T03:08:09.301Z,12.22
2018-10-18T03:09:09.247Z,12.18
2018-10-18T03:10:08.752Z,12.24
2018-10-18T03:11:09.032Z,12.21
2018-10-18T03:12:09.627Z,12.2
2018-10-18T03:13:09.271Z,12.21
2018-10-18T03:14:09.283Z,12.07
2018-10-18T03:15:09.286Z,12.17
2018-10-18T03:16:09.733Z,12.2
2018-10-18T03:17:09.041Z,12.2
2018-10-18T03:18:09.187Z,12.29
2018-10-18T03:19:09.284Z,12.22
2018-10-18T03:20:09.033Z,12.21
2018-10-18T03:21:09.032Z,12.28
2018-10-18T03:22:09.056Z,12.22
2018-10-18T03:23:09.291Z,12.21
2018-10-18T03:24:09.751Z,12.12
2018-10-18T03:25:09.064Z,12.07
2018-10-18T03:26:09.065Z,12.15
2018-10-18T03:27:09.048Z,12.03
2018-10-18T03:28:09.312Z,12.13
2018-10-18T03:29:09.306Z,12.09
2018-10-18T03:30:09.444Z,12.04
2018-10-18T03:31:09.341Z,12.09
2018-10-18T03:32:09.343Z,11.99
2018-10-18T03:33:09.340Z,12.02
2018-10-18T03:34:09.347Z,11.99
2018-10-18T03:35:09.351Z,12
2018-10-18T03:36:09.682Z,12.09
2018-10-18T03:37:09.361Z,11.95
2018-10-18T03:38:09.362Z,12.02
2018-10-18T03:39:09.367Z,12.04
2018-10-18T03:40:09.365Z,11.81
2018-10-18T03:41:09.389Z,11.88
2018-10-18T03:42:09.670Z,11.94
2018-10-18T03:43:09.127Z,11.88
2018-10-18T03:44:09.387Z,11.88
2018-10-18T03:45:09.432Z,11.88
2018-10-18T03:46:09.404Z,11.83
2018-10-18T03:47:09.395Z,11.91
2018-10-18T03:48:09.672Z,11.9
2018-10-18T03:49:09.403Z,11.83
2018-10-18T03:50:09.416Z,11.88
2018-10-18T03:51:09.409Z,11.86
2018-10-18T03:52:09.173Z,11.88
2018-10-18T03:53:09.479Z,11.91
2018-10-18T03:54:09.674Z,11.88
2018-10-18T03:55:09.193Z,11.81
2018-10-18T03:56:09.421Z,11.84
2018-10-18T03:57:09.429Z,11.73
2018-10-18T03:58:09.183Z,11.8
2018-10-18T03:59:09.429Z,11.84
2018-10-18T04:00:09.802Z,11.8
2018-10-18T04:01:09.195Z,11.83
2018-10-18T04:02:09.201Z,11.88
2018-10-18T04:03:09.453Z,11.9
2018-10-18T04:04:08.953Z,11.88
2018-10-18T04:05:09.209Z,11.83
2018-10-18T04:06:09.823Z,11.86
2018-10-18T04:07:09.206Z,11.86
2018-10-18T04:08:08.954Z,11.78
2018-10-18T04:09:09.454Z,11.72
2018-10-18T04:10:09.212Z,11.69
2018-10-18T04:11:09.208Z,11.66
2018-10-18T04:12:09.958Z,11.66
2018-10-18T04:13:09.733Z,11.69
2018-10-18T04:14:09.496Z,11.72
2018-10-18T04:15:09.229Z,11.72
2018-10-18T04:16:09.501Z,11.77
2018-10-18T04:17:09.513Z,11.7
2018-10-18T04:18:10.031Z,11.66
2018-10-18T04:19:09.507Z,11.63
2018-10-18T04:20:09.002Z,11.72
2018-10-18T04:21:09.508Z,11.72
2018-10-18T04:22:09.059Z,11.73
2018-10-18T04:23:09.264Z,11.66
2018-10-18T04:24:09.379Z,11.63
2018-10-18T04:25:09.527Z,11.68
2018-10-18T04:26:09.535Z,11.6
2018-10-18T04:27:09.281Z,11.63
2018-10-18T04:28:09.548Z,11.68
2018-10-18T04:29:09.541Z,11.65
2018-10-18T04:30:09.160Z,11.72
2018-10-18T04:31:09.544Z,11.63
2018-10-18T04:32:09.555Z,11.68
2018-10-18T04:33:09.302Z,11.66
2018-10-18T04:34:09.578Z,11.65
2018-10-18T04:35:09.310Z,11.63
2018-10-18T04:36:09.854Z,11.51
2018-10-18T04:37:09.630Z,11.5
2018-10-18T04:38:09.575Z,11.57
2018-10-18T04:39:09.566Z,11.59
2018-10-18T04:40:09.565Z,11.57
2018-10-18T04:41:09.321Z,11.52
2018-10-18T04:42:09.551Z,11.55
2018-10-18T04:43:09.328Z,11.59
2018-10-18T04:44:09.584Z,11.57
2018-10-18T04:45:09.587Z,11.52
2018-10-18T04:46:09.087Z,11.48
2018-10-18T04:47:09.804Z,11.55
2018-10-18T04:48:09.781Z,11.52
2018-10-18T04:49:09.612Z,11.51
2018-10-18T04:50:09.612Z,11.59
2018-10-18T04:51:09.113Z,11.55
2018-10-18T04:52:09.619Z,11.57
2018-10-18T04:53:09.618Z,11.63
2018-10-18T04:54:09.380Z,11.69
2018-10-18T04:55:10.000Z,11.68
2018-10-18T04:56:09.451Z,11.73
2018-10-18T04:57:09.394Z,11.65
2018-10-18T04:58:09.646Z,11.62
2018-10-18T04:59:09.393Z,11.62
2018-10-18T05:00:09.651Z,11.68
2018-10-18T05:01:09.638Z,11.6
2018-10-18T05:02:09.413Z,11.62
2018-10-18T05:03:09.661Z,11.59
2018-10-18T05:04:09.408Z,11.68
2018-10-18T05:05:09.671Z,11.63
2018-10-18T05:06:09.691Z,11.66
2018-10-18T05:07:10.092Z,11.6
2018-10-18T05:08:09.423Z,11.75
2018-10-18T05:09:09.678Z,11.72
2018-10-18T05:10:09.685Z,11.65
2018-10-18T05:11:09.575Z,11.65
2018-10-18T05:12:09.697Z,11.65
2018-10-18T05:13:09.984Z,11.7
2018-10-18T05:14:09.698Z,11.63
2018-10-18T05:15:09.702Z,11.65
2018-10-18T05:16:09.697Z,11.68
2018-10-18T05:17:09.711Z,11.66
2018-10-18T05:18:09.458Z,11.77
2018-10-18T05:19:09.954Z,11.65
2018-10-18T05:20:09.715Z,11.6
2018-10-18T05:21:09.723Z,11.66
2018-10-18T05:22:09.726Z,11.63
2018-10-18T05:23:09.735Z,11.6
2018-10-18T05:24:09.732Z,11.65
2018-10-18T05:25:09.843Z,11.63
2018-10-18T05:26:09.740Z,11.68
2018-10-18T05:27:09.491Z,11.6
2018-10-18T05:28:09.746Z,11.54
2018-10-18T05:29:09.500Z,11.59
2018-10-18T05:30:09.758Z,11.59
2018-10-18T05:31:10.091Z,11.55
2018-10-18T05:32:09.759Z,11.55
2018-10-18T05:33:09.762Z,11.52
2018-10-18T05:34:09.760Z,11.59
2018-10-18T05:35:09.517Z,11.66
2018-10-18T05:36:09.764Z,11.68
2018-10-18T05:37:09.721Z,11.62
2018-10-18T05:38:09.523Z,11.66
2018-10-18T05:39:09.773Z,11.72
2018-10-18T05:40:09.530Z,11.68
2018-10-18T05:41:09.795Z,11.7
2018-10-18T05:42:09.813Z,11.68
2018-10-18T05:43:10.135Z,11.62
2018-10-18T05:44:09.290Z,11.62
2018-10-18T05:45:09.810Z,11.59
2018-10-18T05:46:09.809Z,11.65
2018-10-18T05:47:10.102Z,11.66
2018-10-18T05:48:09.819Z,11.65
2018-10-18T05:49:09.994Z,11.65
2018-10-18T05:50:09.570Z,11.65
2018-10-18T05:51:09.828Z,11.63
2018-10-18T05:52:09.836Z,11.66
2018-10-18T05:53:10.235Z,11.68
2018-10-18T05:54:10.170Z,11.6
2018-10-18T05:55:10.227Z,11.62
2018-10-18T05:56:09.890Z,11.63
2018-10-18T05:57:09.843Z,11.63
2018-10-18T05:58:09.857Z,11.66
2018-10-18T05:59:09.342Z,11.65
2018-10-18T06:00:10.075Z,11.69
2018-10-18T06:01:09.878Z,11.62
2018-10-18T06:02:09.864Z,11.63
2018-10-18T06:03:09.864Z,11.68
2018-10-18T06:04:09.870Z,11.62
2018-10-18T06:05:09.877Z,11.65
2018-10-18T06:06:09.882Z,11.72
2018-10-18T06:07:09.840Z,11.65
2018-10-18T06:08:09.892Z,11.66
2018-10-18T06:09:09.891Z,11.72
2018-10-18T06:10:10.357Z,11.62
2018-10-18T06:11:09.643Z,11.66
2018-10-18T06:12:09.699Z,11.63
2018-10-18T06:13:10.403Z,11.73
2018-10-18T06:14:09.909Z,11.72
2018-10-18T06:15:09.660Z,11.8
2018-10-18T06:16:09.913Z,11.81
2018-10-18T06:17:09.924Z,11.91
2018-10-18T06:18:09.939Z,11.9
2018-10-18T06:19:10.273Z,11.84
2018-10-18T06:20:09.929Z,11.8
2018-10-18T06:21:09.679Z,11.81
2018-10-18T06:22:09.933Z,11.84
2018-10-18T06:23:10.172Z,11.86
2018-10-18T06:24:09.943Z,11.9
2018-10-18T06:25:10.312Z,11.84
2018-10-18T06:26:09.946Z,11.88
2018-10-18T06:27:09.958Z,11.87
2018-10-18T06:28:10.002Z,11.94
2018-10-18T06:29:10.154Z,11.83
2018-10-18T06:30:09.973Z,11.86
2018-10-18T06:31:10.241Z,11.83
2018-10-18T06:32:09.966Z,11.8
2018-10-18T06:33:09.891Z,11.78
2018-10-18T06:34:09.979Z,11.81
2018-10-18T06:35:10.267Z,11.78
2018-10-18T06:36:09.984Z,11.81
2018-10-18T06:37:10.380Z,11.86
2018-10-18T06:38:09.988Z,11.91
2018-10-18T06:39:10.163Z,11.88
2018-10-18T06:40:10.001Z,11.95
2018-10-18T06:41:09.795Z,11.86
2018-10-18T06:42:09.996Z,11.88
2018-10-18T06:43:10.188Z,11.95
2018-10-18T06:44:10.003Z,11.87
2018-10-18T06:45:10.009Z,11.99
2018-10-18T06:46:09.759Z,12.03
2018-10-18T06:47:10.839Z,12.02
2018-10-18T06:48:10.119Z,12.04
2018-10-18T06:49:09.998Z,12
2018-10-18T06:50:10.025Z,12.02
2018-10-18T06:51:09.794Z,12.03
2018-10-18T06:52:10.033Z,12.03
2018-10-18T06:53:09.787Z,11.99
2018-10-18T06:54:09.633Z,11.99
2018-10-18T06:55:10.091Z,12.1
2018-10-18T06:56:09.794Z,12.13
2018-10-18T06:57:10.060Z,12.15
2018-10-18T06:58:10.065Z,12.22
2018-10-18T06:59:10.072Z,12.28
2018-10-18T07:00:10.211Z,12.21
2018-10-18T07:01:09.839Z,12.29
2018-10-18T07:02:10.075Z,12.29
2018-10-18T07:03:10.073Z,12.27
2018-10-18T07:04:10.124Z,12.39
2018-10-18T07:05:09.830Z,12.39
2018-10-18T07:06:10.249Z,12.45
2018-10-18T07:07:10.104Z,12.46
2018-10-18T07:08:10.095Z,12.61
2018-10-18T07:09:10.097Z,12.61
2018-10-18T07:10:10.100Z,12.58
2018-10-18T07:11:10.366Z,12.64
2018-10-18T07:12:10.164Z,12.65
2018-10-18T07:13:10.138Z,12.64
2018-10-18T07:14:10.137Z,12.8
2018-10-18T07:15:10.129Z,12.75
2018-10-18T07:16:10.140Z,12.83
2018-10-18T07:17:09.886Z,12.91
2018-10-18T07:18:10.187Z,12.94
2018-10-18T07:19:10.145Z,12.95
2018-10-18T07:20:10.201Z,12.98
2018-10-18T07:21:10.154Z,13.03
2018-10-18T07:22:09.640Z,13.11
2018-10-18T07:23:10.106Z,13.13
2018-10-18T07:24:10.426Z,13.31
2018-10-18T07:25:10.301Z,13.27
2018-10-18T07:26:10.157Z,13.28
2018-10-18T07:27:10.165Z,13.27
2018-10-18T07:28:09.934Z,13.33
2018-10-18T07:29:09.923Z,13.44
2018-10-18T07:30:10.554Z,13.37
2018-10-18T07:31:10.195Z,13.52
2018-10-18T07:32:10.237Z,13.62
2018-10-18T07:33:10.280Z,13.52
2018-10-18T07:34:10.231Z,13.6
2018-10-18T07:35:10.676Z,13.5
2018-10-18T07:36:10.573Z,13.62
2018-10-18T07:37:09.965Z,13.59
2018-10-18T07:38:10.311Z,13.6
2018-10-18T07:39:10.237Z,13.59
2018-10-18T07:40:10.026Z,13.62
2018-10-18T07:41:10.474Z,13.75
2018-10-18T07:42:10.525Z,13.75
2018-10-18T07:43:10.151Z,13.81
2018-10-18T07:44:09.741Z,13.83
2018-10-18T07:45:10.004Z,13.81
2018-10-18T07:46:10.001Z,13.87
2018-10-18T07:47:10.260Z,13.99
2018-10-18T07:48:10.561Z,14.11
2018-10-18T07:49:10.275Z,14.1
2018-10-18T07:50:10.101Z,14.14
2018-10-18T07:51:10.296Z,14.15
2018-10-18T07:52:10.050Z,14.05
2018-10-18T07:53:10.942Z,14.07
2018-10-18T07:54:10.751Z,14.15
2018-10-18T07:55:10.380Z,14.15
2018-10-18T07:56:10.063Z,14.26
2018-10-18T07:57:10.325Z,14.36
2018-10-18T07:58:10.349Z,14.36
2018-10-18T07:59:10.097Z,14.33
2018-10-18T08:00:10.367Z,14.36
2018-10-18T08:01:09.840Z,14.58
2018-10-18T08:02:10.107Z,14.58
2018-10-18T08:03:10.359Z,14.62
2018-10-18T08:04:10.369Z,14.73
2018-10-18T08:05:10.118Z,14.85
2018-10-18T08:06:10.354Z,14.89
2018-10-18T08:07:10.477Z,15.04
2018-10-18T08:08:10.247Z,15.29
2018-10-18T08:09:10.133Z,15.29
2018-10-18T08:10:10.458Z,15.35
2018-10-18T08:11:11.051Z,15.35
2018-10-18T08:12:10.407Z,15.42
2018-10-18T08:13:10.757Z,15.52
2018-10-18T08:14:10.161Z,15.67
2018-10-18T08:15:10.173Z,15.8
2018-10-18T08:16:10.425Z,15.88
2018-10-18T08:17:10.225Z,16
2018-10-18T08:18:09.959Z,16.09
2018-10-18T08:19:10.721Z,16.24
2018-10-18T08:20:10.194Z,16.33
2018-10-18T08:21:10.205Z,16.35
2018-10-18T08:22:10.463Z,16.41
2018-10-18T08:23:10.267Z,16.46
2018-10-18T08:24:10.227Z,16.57
2018-10-18T08:25:10.837Z,16.38
2018-10-18T08:26:10.235Z,16.47
2018-10-18T08:27:10.242Z,16.51
2018-10-18T08:28:10.338Z,16.58
2018-10-18T08:29:10.253Z,16.58
2018-10-18T08:30:10.511Z,16.58
2018-10-18T08:31:10.972Z,16.71
2018-10-18T08:32:10.525Z,16.71
2018-10-18T08:33:10.532Z,16.83
2018-10-18T08:34:10.287Z,16.64
2018-10-18T08:35:10.544Z,16.79
2018-10-18T08:36:10.561Z,16.76
2018-10-18T08:37:10.799Z,16.78
2018-10-18T08:38:10.462Z,16.81
2018-10-18T08:39:10.616Z,16.93
2018-10-18T08:40:10.578Z,17.01
2018-10-18T08:41:10.576Z,17.08
2018-10-18T08:42:10.583Z,17.02
2018-10-18T08:43:10.957Z,17.15
2018-10-18T08:44:10.905Z,17.34
2018-10-18T08:45:10.622Z,17.3
2018-10-18T08:46:10.364Z,17.38
2018-10-18T08:47:10.630Z,17.36
2018-10-18T08:48:10.631Z,17.41
2018-10-18T08:49:11.048Z,17.51
2018-10-18T08:50:10.390Z,17.68
2018-10-18T08:51:10.651Z,17.7
2018-10-18T08:52:10.404Z,17.72
2018-10-18T08:53:10.410Z,17.87
2018-10-18T08:54:10.727Z,17.83
2018-10-18T08:55:10.632Z,17.95
2018-10-18T08:56:10.451Z,17.98
2018-10-18T08:57:10.763Z,18.1
2018-10-18T08:58:10.710Z,18.25
2018-10-18T08:59:10.938Z,18.31
2018-10-18T09:00:10.469Z,18.29
2018-10-18T09:01:10.667Z,18.26
2018-10-18T09:02:10.481Z,18.23
2018-10-18T09:03:10.487Z,18.2
2018-10-18T09:04:10.747Z,18.37
2018-10-18T09:05:10.761Z,18.4
2018-10-18T09:06:10.760Z,18.35
2018-10-18T09:07:10.767Z,18.37
2018-10-18T09:08:10.783Z,18.43
2018-10-18T09:09:10.515Z,18.41
2018-10-18T09:10:10.796Z,18.55
2018-10-18T09:11:10.550Z,18.6
2018-10-18T09:12:10.822Z,18.7
2018-10-18T09:13:11.204Z,18.73
2018-10-18T09:14:10.834Z,18.86
2018-10-18T09:15:11.193Z,18.99
2018-10-18T09:16:10.822Z,18.89
2018-10-18T09:17:10.603Z,19.07
2018-10-18T09:18:10.604Z,19.08
2018-10-18T09:19:11.361Z,19.24
2018-10-18T09:20:10.621Z,19.3
2018-10-18T09:21:10.633Z,19.4
2018-10-18T09:22:10.893Z,19.47
2018-10-18T09:23:10.655Z,19.58
2018-10-18T09:24:10.903Z,19.48
2018-10-18T09:25:11.279Z,19.54
2018-10-18T09:26:10.926Z,19.63
2018-10-18T09:27:10.972Z,19.63
2018-10-18T09:28:10.933Z,19.56
2018-10-18T09:29:10.698Z,19.69
2018-10-18T09:30:10.718Z,19.88
2018-10-18T09:31:11.307Z,19.89
2018-10-18T09:32:10.720Z,20.02
2018-10-18T09:33:10.732Z,19.95
2018-10-18T09:34:10.741Z,19.94
2018-10-18T09:35:11.004Z,20.03
2018-10-18T09:36:10.503Z,20.07
2018-10-18T09:37:11.402Z,20.11
2018-10-18T09:38:11.085Z,20.22
2018-10-18T09:39:11.041Z,20.19
2018-10-18T09:40:11.053Z,20.34
2018-10-18T09:41:10.801Z,20.43
2018-10-18T09:42:10.809Z,20.4
2018-10-18T09:43:11.312Z,20.43
2018-10-18T09:44:10.890Z,20.37
2018-10-18T09:45:10.836Z,20.36
2018-10-18T09:46:11.096Z,20.37
2018-10-18T09:47:11.121Z,20.36
2018-10-18T09:48:11.112Z,20.31
2018-10-18T09:49:11.027Z,20.41
2018-10-18T09:50:11.131Z,20.6
2018-10-18T09:51:11.141Z,20.72
2018-10-18T09:52:11.148Z,20.78
2018-10-18T09:53:11.165Z,20.85
2018-10-18T09:54:10.964Z,20.97
2018-10-18T09:55:11.204Z,21.07
2018-10-18T09:56:11.539Z,21.06
2018-10-18T09:57:10.692Z,21.17
2018-10-18T09:58:11.214Z,21.27
2018-10-18T09:59:10.967Z,21.43
2018-10-18T10:00:11.235Z,21.61
2018-10-18T10:01:11.534Z,21.79
2018-10-18T10:02:10.997Z,22.04
2018-10-18T10:03:11.256Z,22.28
2018-10-18T10:04:11.499Z,22.28
2018-10-18T10:05:11.285Z,22.44
2018-10-18T10:06:11.292Z,22.63
2018-10-18T10:07:11.555Z,22.99
2018-10-18T10:08:11.312Z,23.12
2018-10-18T10:09:11.316Z,23.28
2018-10-18T10:10:10.822Z,23.28
2018-10-18T10:11:11.338Z,23.36
2018-10-18T10:12:11.346Z,23.47
2018-10-18T10:13:11.851Z,23.61
2018-10-18T10:14:11.127Z,23.63
2018-10-18T10:15:11.129Z,23.81
2018-10-18T10:16:11.399Z,23.95
2018-10-18T10:17:11.632Z,24.32
2018-10-18T10:18:11.649Z,24.65
2018-10-18T10:19:11.024Z,25.08
2018-10-18T10:20:11.447Z,25.35
2018-10-18T10:21:11.203Z,25.41
2018-10-18T10:22:11.217Z,25.72
2018-10-18T10:23:11.481Z,25.81
2018-10-18T10:24:11.493Z,26.05
2018-10-18T10:25:11.847Z,26.4
2018-10-18T10:26:11.532Z,26.52
2018-10-18T10:27:11.542Z,26.78
2018-10-18T10:28:11.553Z,26.92
2018-10-18T10:29:11.563Z,27.2
2018-10-18T10:30:11.708Z,27.45
2018-10-18T10:31:12.002Z,27.8
2018-10-18T10:32:11.356Z,27.95
2018-10-18T10:33:12.079Z,28.25
2018-10-18T10:34:11.639Z,28.11
2018-10-18T10:35:11.867Z,28.29
2018-10-18T10:36:11.665Z,28.48
2018-10-18T10:37:11.587Z,28.47
2018-10-18T10:38:11.689Z,28.64
2018-10-18T10:39:12.012Z,28.56
2018-10-18T10:40:12.222Z,28.67
2018-10-18T10:41:11.711Z,28.89
2018-10-18T10:42:12.070Z,29.08
2018-10-18T10:43:12.001Z,29.2
2018-10-18T10:44:11.408Z,29.38
2018-10-18T10:45:11.966Z,29.56
2018-10-18T10:46:12.156Z,29.65
2018-10-18T10:47:11.902Z,29.81
2018-10-18T10:48:12.277Z,29.94
2018-10-18T10:49:12.190Z,29.73
2018-10-18T10:50:11.803Z,29.76
2018-10-18T10:51:12.290Z,29.76
2018-10-18T10:52:12.288Z,29.69
2018-10-18T10:53:11.685Z,29.79
2018-10-18T10:54:12.275Z,29.78
2018-10-18T10:55:11.964Z,29.91
2018-10-18T10:56:12.225Z,29.94
2018-10-18T10:57:12.015Z,29.97
2018-10-18T10:58:12.311Z,29.91
2018-10-18T10:59:12.294Z,30.06
2018-10-18T11:00:12.386Z,30.39
2018-10-18T11:01:11.814Z,30.62
2018-10-18T11:02:12.013Z,30.47
2018-10-18T11:03:12.510Z,30.4
2018-10-18T11:04:11.873Z,30.47
2018-10-18T11:05:12.154Z,30.53
2018-10-18T11:06:11.700Z,30.7
2018-10-18T11:07:11.679Z,30.69
2018-10-18T11:08:12.633Z,30.87
2018-10-18T11:09:12.198Z,31.05
2018-10-18T11:10:12.234Z,31.21
2018-10-18T11:11:12.267Z,31.29
2018-10-18T11:12:13.069Z,31.46
2018-10-18T11:13:12.297Z,31.51
2018-10-18T11:14:12.726Z,31.56
2018-10-18T11:15:12.262Z,31.46
2018-10-18T11:16:12.334Z,31.54
2018-10-18T11:17:12.393Z,31.55
2018-10-18T11:18:12.281Z,31.59
2018-10-18T11:19:12.391Z,31.56
2018-10-18T11:20:12.724Z,31.43
2018-10-18T11:21:12.859Z,31.47
2018-10-18T11:22:12.442Z,31.18
2018-10-18T11:23:12.477Z,31.22
2018-10-18T11:24:13.016Z,31.34
2018-10-18T11:25:12.507Z,31.71
2018-10-18T11:26:12.496Z,31.69
2018-10-18T11:27:12.901Z,31.76
2018-10-18T11:28:12.310Z,32.04
2018-10-18T11:29:12.586Z,32.23
2018-10-18T11:30:13.014Z,32.33
2018-10-18T11:31:12.622Z,32.37
2018-10-18T11:32:13.109Z,32.34
2018-10-18T11:33:12.866Z,32.48
2018-10-18T11:34:12.468Z,32.63
2018-10-18T11:35:12.445Z,32.9
2018-10-18T11:36:12.979Z,33.09
2018-10-18T11:37:12.485Z,33.23
2018-10-18T11:38:13.092Z,33.34
2018-10-18T11:39:12.782Z,33.53
2018-10-18T11:40:12.797Z,33.42
2018-10-18T11:41:12.330Z,33.47
2018-10-18T11:42:12.744Z,33.67
2018-10-18T11:43:12.862Z,33.89
2018-10-18T11:44:13.092Z,33.87
2018-10-18T11:45:12.900Z,33.83
2018-10-18T11:46:12.675Z,33.74
2018-10-18T11:47:12.936Z,33.55
2018-10-18T11:48:13.244Z,33.62
2018-10-18T11:49:12.725Z,33.69
2018-10-18T11:50:13.022Z,33.64
2018-10-18T11:51:13.027Z,33.59
2018-10-18T11:52:13.062Z,33.79
2018-10-18T11:53:13.064Z,33.77
2018-10-18T11:54:13.029Z,33.73
2018-10-18T11:55:13.100Z,33.79
2018-10-18T11:56:13.623Z,34.08
2018-10-18T11:57:12.942Z,34.33
2018-10-18T11:58:13.174Z,34.5
2018-10-18T11:59:13.591Z,35.07
2018-10-18T12:00:13.256Z,35.07
2018-10-18T12:01:13.467Z,35.11
2018-10-18T12:02:13.571Z,35.24
2018-10-18T12:03:13.269Z,35.33
2018-10-18T12:04:13.037Z,35.36
2018-10-18T12:05:13.247Z,35.44
2018-10-18T12:06:13.346Z,35.64
2018-10-18T12:07:13.100Z,35.68
2018-10-18T12:08:13.773Z,35.55
2018-10-18T12:09:13.394Z,35.46
2018-10-18T12:10:13.484Z,35.63
2018-10-18T12:11:13.442Z,35.56
2018-10-18T12:12:13.460Z,35.58
2018-10-18T12:13:13.233Z,35.55
2018-10-18T12:14:13.708Z,35.56
2018-10-18T12:15:13.521Z,35.55
2018-10-18T12:16:13.292Z,35.61
2018-10-18T12:17:13.534Z,35.67
2018-10-18T12:18:13.592Z,36
2018-10-18T12:19:13.593Z,35.98
2018-10-18T12:20:13.674Z,35.95
2018-10-18T12:21:13.653Z,35.66
2018-10-18T12:22:13.427Z,35.64
2018-10-18T12:23:14.230Z,35.58
2018-10-18T12:24:13.474Z,35.64
2018-10-18T12:25:13.534Z,35.86
2018-10-18T12:26:14.161Z,35.86
2018-10-18T12:27:13.541Z,36.02
2018-10-18T12:28:13.817Z,36.04
2018-10-18T12:29:14.206Z,35.85
2018-10-18T12:30:13.866Z,35.6
2018-10-18T12:31:13.888Z,35.45
2018-10-18T12:32:13.824Z,35.56
2018-10-18T12:33:13.922Z,35.48
2018-10-18T12:34:13.947Z,35.76
2018-10-18T12:35:14.424Z,35.9
2018-10-18T12:36:13.988Z,36.02
2018-10-18T12:37:14.008Z,35.95
2018-10-18T12:38:14.097Z,36.04
2018-10-18T12:39:14.239Z,36.18
2018-10-18T12:40:14.277Z,36.17
2018-10-18T12:41:14.940Z,35.95
2018-10-18T12:42:13.866Z,36.17
2018-10-18T12:43:14.140Z,36.17
2018-10-18T12:44:14.129Z,36.04
2018-10-18T12:45:14.171Z,36.12
2018-10-18T12:46:14.191Z,35.93
2018-10-18T12:47:13.958Z,35.7
2018-10-18T12:48:13.902Z,35.85
2018-10-18T12:49:14.257Z,35.8
2018-10-18T12:50:14.760Z,35.55
2018-10-18T12:51:14.305Z,35.71
2018-10-18T12:52:13.825Z,35.89
2018-10-18T12:53:14.343Z,35.88
2018-10-18T12:54:14.634Z,35.86
2018-10-18T12:55:14.140Z,35.49